Scot Hamburg — 9HA4095 — position and weather

sailwx.info

Track history (hours):
 
Tides and Currents Weather Stations Pressure Air Temp Water Temp Dewpoint Dewpoint Depression Visibility Wind Speed Wind Dir Waves Ship Positions

Scot Hamburg

Last reported at 2018-Jan-22 01:40 UTC. Time now 2018-Feb-22 03:29 UTC.
Position N 32°43' E 034°38'.
Warning: this ship's position is 31 days out of date.

Length 117 m; draft 7.3 m.

Type: Ship (hazmat cat B). MMSI: 249081000.

Date/timePositionNaut miles runAvg speedWind from/ knotsBaromVisibWave heightAir tempDewpointWater temp
2018-Jan-22 01:40N 32°43' E 034°38'712.2
2018-Jan-22 01:07N 32°46' E 034°45'312.3
2018-Jan-22 00:53N 32°48' E 034°48'512.3
2018-Jan-22 00:29N 32°50' E 034°53'7 0.6
2018-Jan-21 11:16N 32°49' E 035°02'10 2.1
2018-Jan-21 06:24N 32°54' E 034°52'4 9.8
2018-Jan-21 06:00N 32°56' E 034°47'6 9.3
2018-Jan-21 05:23N 32°57' E 034°41'43110.9
2018-Jan-19 13:47N 36°16' E 026°56'1711.1
2018-Jan-19 12:15N 36°30' E 026°45'311.4
2018-Jan-19 11:59N 36°33' E 026°44'511.5
2018-Jan-19 11:30N 36°38' E 026°43'612.6
2018-Jan-19 11:00N 36°45' E 026°41'712.9
2018-Jan-19 10:30N 36°51' E 026°40'612.9
2018-Jan-19 10:00N 36°57' E 026°38'712.2
2018-Jan-19 09:28N 37°04' E 026°37'612.4
2018-Jan-19 09:00N 37°07' E 026°31'612.7
2018-Jan-19 08:30N 37°10' E 026°24'612.8
2018-Jan-19 08:00N 37°13' E 026°17'612.0
2018-Jan-19 07:30N 37°16' E 026°10'611.7
2018-Jan-19 07:00N 37°19' E 026°04'612.0
2018-Jan-19 06:31N 37°21' E 025°57'612.2
2018-Jan-19 06:00N 37°25' E 025°51'612.7
2018-Jan-19 05:30N 37°30' E 025°46'611.7
2018-Jan-19 05:00N 37°35' E 025°44'612.1
2018-Jan-19 04:29N 37°42' E 025°43'912.4
2018-Jan-19 03:48N 37°50' E 025°43'  
2018-Jan-12 15:00N 44°09' E 028°40'0 0.0
2018-Jan-12 14:30N 44°09' E 028°40'0 0.0
2018-Jan-12 14:00N 44°09' E 028°40'0 0.0
2018-Jan-12 13:30N 44°09' E 028°40'0 0.0
2018-Jan-12 13:00N 44°09' E 028°40'0 0.0
2018-Jan-12 12:30N 44°09' E 028°40'0 0.0
2018-Jan-12 12:00N 44°09' E 028°40'0 0.0
2018-Jan-12 11:30N 44°09' E 028°40'0 0.0
2018-Jan-12 10:57N 44°09' E 028°40'0 0.0
2018-Jan-12 10:30N 44°09' E 028°40'  
Track history (hours):
 
Tides and Currents Weather Stations Pressure Air Temp Water Temp Dewpoint Dewpoint Depression Visibility Wind Speed Wind Dir Waves Ship Positions

Scot Hamburg

Last reported at 2018-Jan-22 01:40 UTC. Time now 2018-Feb-22 03:29 UTC.
Position N 32°43' E 034°38'.
Warning: this ship's position is 31 days out of date.

Length 117 m; draft 7.3 m.

Type: Ship (hazmat cat B). MMSI: 249081000.

Date/timePositionNaut miles runAvg speedWind from/ knotsBaromVisibWave heightAir tempDewpointWater temp
2018-Jan-22 01:40N 32°43' E 034°38'712.2
2018-Jan-22 01:07N 32°46' E 034°45'312.3
2018-Jan-22 00:53N 32°48' E 034°48'512.3
2018-Jan-22 00:29N 32°50' E 034°53'7 0.6
2018-Jan-21 11:16N 32°49' E 035°02'10 2.1
2018-Jan-21 06:24N 32°54' E 034°52'4 9.8
2018-Jan-21 06:00N 32°56' E 034°47'6 9.3
2018-Jan-21 05:23N 32°57' E 034°41'43110.9
2018-Jan-19 13:47N 36°16' E 026°56'1711.1
2018-Jan-19 12:15N 36°30' E 026°45'311.4
2018-Jan-19 11:59N 36°33' E 026°44'511.5
2018-Jan-19 11:30N 36°38' E 026°43'612.6
2018-Jan-19 11:00N 36°45' E 026°41'712.9
2018-Jan-19 10:30N 36°51' E 026°40'612.9
2018-Jan-19 10:00N 36°57' E 026°38'712.2
2018-Jan-19 09:28N 37°04' E 026°37'612.4
2018-Jan-19 09:00N 37°07' E 026°31'612.7
2018-Jan-19 08:30N 37°10' E 026°24'612.8
2018-Jan-19 08:00N 37°13' E 026°17'612.0
2018-Jan-19 07:30N 37°16' E 026°10'611.7
2018-Jan-19 07:00N 37°19' E 026°04'612.0
2018-Jan-19 06:31N 37°21' E 025°57'612.2
2018-Jan-19 06:00N 37°25' E 025°51'612.7
2018-Jan-19 05:30N 37°30' E 025°46'611.7
2018-Jan-19 05:00N 37°35' E 025°44'612.1
2018-Jan-19 04:29N 37°42' E 025°43'912.4
2018-Jan-19 03:48N 37°50' E 025°43'  
2018-Jan-12 15:00N 44°09' E 028°40'0 0.0
2018-Jan-12 14:30N 44°09' E 028°40'0 0.0
2018-Jan-12 14:00N 44°09' E 028°40'0 0.0
2018-Jan-12 13:30N 44°09' E 028°40'0 0.0
2018-Jan-12 13:00N 44°09' E 028°40'0 0.0
2018-Jan-12 12:30N 44°09' E 028°40'0 0.0
2018-Jan-12 12:00N 44°09' E 028°40'0 0.0
2018-Jan-12 11:30N 44°09' E 028°40'0 0.0
2018-Jan-12 10:57N 44°09' E 028°40'0 0.0
2018-Jan-12 10:30N 44°09' E 028°40'  

Dump ship's entire track history